Time;durP1;ratioP1;P1;durP2;ratioP2;P2;SDS_P1;SDS_P2;PMS_P1;PMS_P2;Temp;Humidity;BMP_temperature;BMP_pressure;BME280_temperature;BME280_humidity;BME280_pressure;Samples;Min_cycle;Max_cycle;Signal;HPM_P1;HPM_P2
2024/04/23 00:00:22;;;;;;;1.92;1.83;;;;;;;;;;5402583;26;20669;-69
2024/04/23 00:02:48;;;;;;;2.17;1.70;;;;;;;;;;5436599;26;19999;-69
2024/04/23 00:05:15;;;;;;;5.35;1.83;;;;;;;;;;5411445;26;19999;-69
2024/04/23 00:07:41;;;;;;;4.30;2.13;;;;;;;;;;5426822;26;20006;-69
2024/04/23 00:10:07;;;;;;;2.42;1.90;;;;;;;;;;5431771;26;20003;-69
2024/04/23 00:12:33;;;;;;;1.80;1.70;;;;;;;;;;5435854;26;19998;-68
2024/04/23 00:14:59;;;;;;;2.78;1.70;;;;;;;;;;5404447;26;20011;-69
2024/04/23 00:17:26;;;;;;;2.05;1.85;;;;;;;;;;5400591;26;20003;-69
2024/04/23 00:19:52;;;;;;;1.60;1.50;;;;;;;;;;5400749;26;20027;-68
2024/04/23 00:22:18;;;;;;;1.63;1.52;;;;;;;;;;5403240;26;20462;-69
2024/04/23 00:24:44;;;;;;;1.33;1.33;;;;;;;;;;5392756;26;20025;-70
2024/04/23 00:27:10;;;;;;;2.08;1.88;;;;;;;;;;5398836;26;20011;-70
2024/04/23 00:29:37;;;;;;;1.67;1.58;;;;;;;;;;5391512;26;20003;-69
2024/04/23 00:32:03;;;;;;;1.60;1.50;;;;;;;;;;5397377;26;20033;-69
2024/04/23 00:34:29;;;;;;;1.92;1.75;;;;;;;;;;5396557;26;20003;-70
2024/04/23 00:36:56;;;;;;;1.95;1.65;;;;;;;;;;5397495;26;20542;-69
2024/04/23 00:39:23;;;;;;;3.75;2.17;;;;;;;;;;5394124;26;20401;-69
2024/04/23 00:41:49;;;;;;;13.93;2.22;;;;;;;;;;5393444;26;20014;-69
2024/04/23 00:44:16;;;;;;;1.95;1.85;;;;;;;;;;5396321;26;22112;-69
2024/04/23 00:46:42;;;;;;;2.25;1.70;;;;;;;;;;5399307;26;19999;-69
2024/04/23 00:49:09;;;;;;;1.85;1.75;;;;;;;;;;5398652;26;20056;-69
2024/04/23 00:51:36;;;;;;;2.95;1.80;;;;;;;;;;5403201;26;19999;-69
2024/04/23 00:54:02;;;;;;;2.15;1.95;;;;;;;;;;5395458;26;20457;-68
2024/04/23 00:56:28;;;;;;;1.73;1.63;;;;;;;;;;5398976;26;20000;-69
2024/04/23 00:58:54;;;;;;;1.77;1.67;;;;;;;;;;5395751;26;20000;-69
2024/04/23 01:01:21;;;;;;;1.85;1.75;;;;;;;;;;5393545;26;20443;-70
2024/04/23 01:03:47;;;;;;;1.98;1.70;;;;;;;;;;5396407;26;19995;-69
2024/04/23 01:06:13;;;;;;;1.70;1.60;;;;;;;;;;5386844;26;20019;-68
2024/04/23 01:08:39;;;;;;;4.13;1.88;;;;;;;;;;5394947;26;20050;-69
2024/04/23 01:11:05;;;;;;;3.28;2.50;;;;;;;;;;5401478;26;20445;-69
2024/04/23 01:13:31;;;;;;;2.25;2.05;;;;;;;;;;5396628;26;19992;-69
2024/04/23 01:15:58;;;;;;;7.88;2.17;;;;;;;;;;5427586;26;20294;-69
2024/04/23 01:18:25;;;;;;;2.53;2.00;;;;;;;;;;5401914;26;20336;-69
2024/04/23 01:20:55;;;;;;;3.10;2.05;;;;;;;;;;5435267;26;20461;-69
2024/04/23 01:23:23;;;;;;;1.70;1.60;;;;;;;;;;5437605;26;19998;-69
2024/04/23 01:25:52;;;;;;;2.65;1.83;;;;;;;;;;5438623;26;20473;-68
2024/04/23 01:28:18;;;;;;;2.40;1.90;;;;;;;;;;5433534;26;20101;-69
2024/04/23 01:30:45;;;;;;;1.73;1.55;;;;;;;;;;5410814;26;20338;-69
2024/04/23 01:33:12;;;;;;;1.95;1.83;;;;;;;;;;5436004;26;20473;-69
2024/04/23 01:35:38;;;;;;;2.08;1.90;;;;;;;;;;5439746;26;20007;-68
2024/04/23 01:38:05;;;;;;;4.93;1.77;;;;;;;;;;5430603;26;19999;-68
2024/04/23 01:40:31;;;;;;;1.95;1.73;;;;;;;;;;5437325;26;20006;-69
2024/04/23 01:42:57;;;;;;;1.88;1.63;;;;;;;;;;5432564;26;20395;-69
2024/04/23 01:45:24;;;;;;;2.10;1.90;;;;;;;;;;5395635;26;21251;-67
2024/04/23 01:47:50;;;;;;;2.80;1.77;;;;;;;;;;5430038;26;20010;-69
2024/04/23 01:50:17;;;;;;;3.08;2.03;;;;;;;;;;5441180;26;20381;-68
2024/04/23 01:52:44;;;;;;;1.90;1.60;;;;;;;;;;5420271;26;20007;-68
2024/04/23 01:55:11;;;;;;;2.25;1.52;;;;;;;;;;5410330;26;19999;-69
2024/04/23 01:57:37;;;;;;;4.22;2.05;;;;;;;;;;5435978;26;20741;-69
2024/04/23 02:00:05;;;;;;;2.35;2.15;;;;;;;;;;5437319;26;20014;-69
2024/04/23 02:02:32;;;;;;;1.88;1.65;;;;;;;;;;5438245;26;20638;-69
2024/04/23 02:04:59;;;;;;;2.83;1.85;;;;;;;;;;5441126;26;20056;-68
2024/04/23 02:07:26;;;;;;;2.17;1.40;;;;;;;;;;5411651;26;20011;-69
2024/04/23 02:09:52;;;;;;;3.15;2.03;;;;;;;;;;5408074;26;20032;-69
2024/04/23 02:12:22;;;;;;;6.25;1.83;;;;;;;;;;5413359;26;20002;-69
2024/04/23 02:14:48;;;;;;;1.83;1.73;;;;;;;;;;5388458;26;20081;-69
2024/04/23 02:17:34;;;;;;;2.10;1.70;;;;;;;;;;5356042;26;20315;-68
2024/04/23 02:20:00;;;;;;;3.13;1.50;;;;;;;;;;5353699;26;20004;-69
2024/04/23 02:22:26;;;;;;;2.10;1.90;;;;;;;;;;5360303;26;20001;-68
2024/04/23 02:24:52;;;;;;;1.67;1.58;;;;;;;;;;5361788;26;20117;-69
2024/04/23 02:27:18;;;;;;;2.08;1.60;;;;;;;;;;5357223;26;19997;-69
2024/04/23 02:29:45;;;;;;;1.60;1.50;;;;;;;;;;5352709;26;20019;-70
2024/04/23 02:32:11;;;;;;;1.80;1.70;;;;;;;;;;5361776;26;20011;-68
2024/04/23 02:34:37;;;;;;;1.40;1.38;;;;;;;;;;5357891;26;20032;-69
2024/04/23 02:37:03;;;;;;;3.85;1.80;;;;;;;;;;5386789;26;19997;-69
2024/04/23 02:39:29;;;;;;;1.60;1.50;;;;;;;;;;5355201;26;20000;-69
2024/04/23 02:41:55;;;;;;;2.58;2.20;;;;;;;;;;5372083;26;20022;-70
2024/04/23 02:44:22;;;;;;;1.65;1.55;;;;;;;;;;5367074;26;20088;-68
2024/04/23 02:46:48;;;;;;;2.60;1.80;;;;;;;;;;5366800;26;20069;-69
2024/04/23 02:49:14;;;;;;;1.90;1.55;;;;;;;;;;5352590;26;20019;-69
2024/04/23 02:51:48;;;;;;;4.70;1.35;;;;;;;;;;5354490;26;20015;-70
2024/04/23 02:54:14;;;;;;;1.63;1.50;;;;;;;;;;5359471;26;20482;-69
2024/04/23 02:56:40;;;;;;;1.77;1.60;;;;;;;;;;5356587;26;20068;-69
2024/04/23 02:59:06;;;;;;;1.92;1.80;;;;;;;;;;5356557;26;20550;-68
2024/04/23 03:01:33;;;;;;;1.60;1.50;;;;;;;;;;5354314;26;20343;-69
2024/04/23 03:03:59;;;;;;;3.03;2.08;;;;;;;;;;5361342;26;20011;-69
2024/04/23 03:06:25;;;;;;;1.98;1.77;;;;;;;;;;5344257;26;19997;-69
2024/04/23 03:08:51;;;;;;;1.52;1.35;;;;;;;;;;5353543;26;19993;-69
2024/04/23 03:11:18;;;;;;;2.53;1.67;;;;;;;;;;5357186;26;20016;-69
2024/04/23 03:13:44;;;;;;;1.25;1.25;;;;;;;;;;5359724;26;19991;-70
2024/04/23 03:16:10;;;;;;;2.72;1.65;;;;;;;;;;5424022;26;20003;-69
2024/04/23 03:18:36;;;;;;;1.92;1.80;;;;;;;;;;5404529;26;20430;-69
2024/04/23 03:21:03;;;;;;;1.70;1.60;;;;;;;;;;5394593;26;20011;-69
2024/04/23 03:23:29;;;;;;;1.60;1.50;;;;;;;;;;5437269;26;20026;-69
2024/04/23 03:25:55;;;;;;;1.65;1.55;;;;;;;;;;5427905;26;19999;-68
2024/04/23 03:28:21;;;;;;;2.35;1.98;;;;;;;;;;5428107;26;20031;-68
2024/04/23 03:30:47;;;;;;;1.70;1.60;;;;;;;;;;5436395;26;20014;-69
2024/04/23 03:33:13;;;;;;;1.88;1.77;;;;;;;;;;5416195;26;20745;-69
2024/04/23 03:35:39;;;;;;;2.47;1.73;;;;;;;;;;5436050;26;20013;-69
2024/04/23 03:38:06;;;;;;;4.50;2.55;;;;;;;;;;5431699;26;19999;-69
2024/04/23 03:40:32;;;;;;;2.13;1.80;;;;;;;;;;5439303;26;20454;-70
2024/04/23 03:42:58;;;;;;;1.60;1.50;;;;;;;;;;5409174;26;19994;-71
2024/04/23 03:45:24;;;;;;;1.80;1.70;;;;;;;;;;5415111;26;20018;-70
2024/04/23 03:47:51;;;;;;;4.20;2.40;;;;;;;;;;5432078;26;20533;-70
2024/04/23 03:50:17;;;;;;;2.25;1.80;;;;;;;;;;5437114;26;19999;-69
2024/04/23 03:52:44;;;;;;;3.33;1.65;;;;;;;;;;5431610;26;19995;-69
2024/04/23 03:55:10;;;;;;;2.90;2.13;;;;;;;;;;5437552;26;20330;-68
2024/04/23 03:57:36;;;;;;;6.40;2.10;;;;;;;;;;5438002;26;19991;-70
2024/04/23 04:00:03;;;;;;;2.08;1.80;;;;;;;;;;5403134;26;20485;-68
2024/04/23 04:07:58;;;;;;;2.05;1.85;;;;;;;;;;5433146;26;20010;-68
2024/04/23 04:10:24;;;;;;;3.00;1.80;;;;;;;;;;5416357;26;19995;-68
2024/04/23 04:12:50;;;;;;;4.40;1.83;;;;;;;;;;5438611;26;20028;-68
2024/04/23 04:15:17;;;;;;;3.38;1.70;;;;;;;;;;5434147;26;20463;-68
2024/04/23 04:17:43;;;;;;;1.80;1.70;;;;;;;;;;5440039;26;19995;-68
2024/04/23 04:20:09;;;;;;;4.43;1.88;;;;;;;;;;5380544;26;20084;-68
2024/04/23 04:22:35;;;;;;;2.00;1.85;;;;;;;;;;5437666;26;19994;-67
2024/04/23 04:25:01;;;;;;;4.68;1.92;;;;;;;;;;5403519;26;20066;-68
2024/04/23 04:27:28;;;;;;;1.92;1.75;;;;;;;;;;5428353;26;20057;-70
2024/04/23 04:29:54;;;;;;;1.67;1.58;;;;;;;;;;5430334;26;20050;-68
2024/04/23 04:32:20;;;;;;;1.83;1.70;;;;;;;;;;5431796;26;20007;-69
2024/04/23 04:34:46;;;;;;;2.00;1.90;;;;;;;;;;5431027;26;20014;-68
2024/04/23 04:37:12;;;;;;;4.22;2.05;;;;;;;;;;5431983;26;20010;-69
2024/04/23 04:39:38;;;;;;;2.63;1.75;;;;;;;;;;5386131;26;20012;-69
2024/04/23 04:42:04;;;;;;;1.70;1.60;;;;;;;;;;5433971;26;20070;-69
2024/04/23 04:44:30;;;;;;;2.75;1.73;;;;;;;;;;5407830;26;19999;-68
2024/04/23 04:46:57;;;;;;;4.55;2.90;;;;;;;;;;5440590;26;20562;-68
2024/04/23 04:49:23;;;;;;;2.00;1.80;;;;;;;;;;5405398;26;20013;-69
2024/04/23 04:51:49;;;;;;;2.22;1.95;;;;;;;;;;5434294;26;20004;-68
2024/04/23 04:54:16;;;;;;;5.15;2.08;;;;;;;;;;5442543;26;20362;-70
2024/04/23 04:56:42;;;;;;;1.98;1.70;;;;;;;;;;5440122;26;19995;-70
2024/04/23 04:59:08;;;;;;;1.67;1.58;;;;;;;;;;5437422;26;20346;-70
2024/04/23 05:01:35;;;;;;;1.52;1.42;;;;;;;;;;5444246;26;20058;-69
2024/04/23 05:04:03;;;;;;;1.50;1.40;;;;;;;;;;5398898;26;19996;-68
2024/04/23 05:06:29;;;;;;;1.63;1.52;;;;;;;;;;5439625;26;19999;-69
2024/04/23 05:08:55;;;;;;;1.83;1.73;;;;;;;;;;5429341;26;19999;-71
2024/04/23 05:11:21;;;;;;;1.90;1.80;;;;;;;;;;5433644;26;20016;-70
2024/04/23 05:13:47;;;;;;;5.53;1.60;;;;;;;;;;5437602;26;19996;-68
2024/04/23 05:16:14;;;;;;;1.75;1.65;;;;;;;;;;5440384;26;20018;-69
2024/04/23 05:18:41;;;;;;;1.48;1.38;;;;;;;;;;5442185;26;20034;-69
2024/04/23 05:21:07;;;;;;;1.80;1.70;;;;;;;;;;5442053;26;20006;-68
2024/04/23 05:23:33;;;;;;;1.55;1.40;;;;;;;;;;5441921;26;20006;-68
2024/04/23 05:25:59;;;;;;;1.50;1.40;;;;;;;;;;5433188;26;20017;-69
2024/04/23 05:28:25;;;;;;;2.55;1.40;;;;;;;;;;5442278;26;20390;-69
2024/04/23 05:33:36;;;;;;;2.57;1.87;;;;;;;;;;5414023;26;20060;-69
2024/04/23 05:36:03;;;;;;;1.60;1.50;;;;;;;;;;5442520;26;20017;-69
2024/04/23 05:38:29;;;;;;;1.50;1.40;;;;;;;;;;5419259;26;19999;-69
2024/04/23 05:40:55;;;;;;;1.50;1.30;;;;;;;;;;5377727;26;20003;-69
2024/04/23 05:43:21;;;;;;;1.17;1.17;;;;;;;;;;5433944;26;20010;-69
2024/04/23 05:45:48;;;;;;;1.60;1.50;;;;;;;;;;5433263;26;19996;-69
2024/04/23 05:48:33;;;;;;;3.50;1.55;;;;;;;;;;5438025;26;19998;-69
2024/04/23 05:51:18;;;;;;;1.35;1.33;;;;;;;;;;5436944;26;20495;-69
2024/04/23 05:54:03;;;;;;;1.52;1.50;;;;;;;;;;5450217;26;20007;-69
2024/04/23 05:56:30;;;;;;;1.27;1.27;;;;;;;;;;5446054;26;20011;-69
2024/04/23 05:58:56;;;;;;;1.52;1.42;;;;;;;;;;5417091;26;20046;-69
2024/04/23 06:01:23;;;;;;;1.42;1.38;;;;;;;;;;5401481;26;20405;-69
2024/04/23 06:03:49;;;;;;;1.92;1.80;;;;;;;;;;5415827;26;20473;-69
2024/04/23 06:06:15;;;;;;;1.30;1.30;;;;;;;;;;5432623;26;20519;-69
2024/04/23 06:08:41;;;;;;;1.90;1.52;;;;;;;;;;5398104;26;20031;-69
2024/04/23 06:11:07;;;;;;;1.80;1.60;;;;;;;;;;5437333;26;20002;-69
2024/04/23 06:13:33;;;;;;;1.30;1.30;;;;;;;;;;5435191;26;20026;-69
2024/04/23 06:15:59;;;;;;;1.40;1.40;;;;;;;;;;5428748;26;20014;-69
2024/04/23 06:18:26;;;;;;;1.38;1.35;;;;;;;;;;5401794;26;19995;-69
2024/04/23 06:20:52;;;;;;;2.45;1.40;;;;;;;;;;5428679;26;19991;-68
2024/04/23 06:23:19;;;;;;;1.52;1.50;;;;;;;;;;5430991;26;19998;-69
2024/04/23 06:25:46;;;;;;;3.20;1.30;;;;;;;;;;5430288;26;20328;-69
2024/04/23 06:28:12;;;;;;;2.42;1.50;;;;;;;;;;5426536;26;20003;-63
2024/04/23 06:30:38;;;;;;;1.48;1.27;;;;;;;;;;5416537;26;20478;-64
2024/04/23 06:33:04;;;;;;;2.22;1.63;;;;;;;;;;5394636;26;19999;-64
2024/04/23 06:35:31;;;;;;;1.73;1.67;;;;;;;;;;5418523;26;20035;-63
2024/04/23 06:37:57;;;;;;;1.38;1.27;;;;;;;;;;5421600;26;20000;-66
2024/04/23 06:40:23;;;;;;;1.63;1.30;;;;;;;;;;5412728;26;20006;-64
2024/04/23 06:42:49;;;;;;;1.52;1.42;;;;;;;;;;5416201;26;20006;-63
2024/04/23 06:45:19;;;;;;;4.53;1.40;;;;;;;;;;5387033;26;20003;-67
2024/04/23 06:47:47;;;;;;;2.67;1.48;;;;;;;;;;5425500;26;19990;-67
2024/04/23 06:50:15;;;;;;;1.50;1.40;;;;;;;;;;5444739;26;20456;-72
2024/04/23 06:52:41;;;;;;;1.70;1.60;;;;;;;;;;5438334;26;20454;-72
2024/04/23 06:55:08;;;;;;;1.52;1.48;;;;;;;;;;5437217;26;21250;-72
2024/04/23 06:57:34;;;;;;;7.25;1.80;;;;;;;;;;5438345;26;20014;-68
2024/04/23 07:00:00;;;;;;;1.20;1.17;;;;;;;;;;5447451;26;20021;-68
2024/04/23 07:02:27;;;;;;;2.83;1.50;;;;;;;;;;5437817;26;20006;-72
2024/04/23 07:04:54;;;;;;;2.85;1.75;;;;;;;;;;5443847;26;20007;-66
2024/04/23 07:07:21;;;;;;;4.13;1.30;;;;;;;;;;5398901;26;20564;-63
2024/04/23 07:09:49;;;;;;;1.55;1.45;;;;;;;;;;5419051;26;20070;-62
2024/04/23 07:12:18;;;;;;;2.53;1.20;;;;;;;;;;5442460;26;20018;-62
2024/04/23 07:14:47;;;;;;;6.53;2.13;;;;;;;;;;5445711;26;19999;-62
2024/04/23 07:17:17;;;;;;;2.30;2.05;;;;;;;;;;5444721;26;20656;-67
2024/04/23 07:19:44;;;;;;;1.48;1.38;;;;;;;;;;5405455;26;20024;-63
2024/04/23 07:22:10;;;;;;;2.25;1.40;;;;;;;;;;5417778;26;19995;-63
2024/04/23 07:24:37;;;;;;;1.45;1.40;;;;;;;;;;5442235;26;20017;-64
2024/04/23 07:27:03;;;;;;;1.90;1.52;;;;;;;;;;5451582;26;20002;-62
2024/04/23 07:29:36;;;;;;;1.30;1.30;;;;;;;;;;5446002;26;19998;-63
2024/04/23 07:32:03;;;;;;;1.65;1.55;;;;;;;;;;5416553;26;20424;-63
2024/04/23 07:34:30;;;;;;;3.75;1.45;;;;;;;;;;5414673;26;20009;-66
2024/04/23 07:36:58;;;;;;;1.63;1.52;;;;;;;;;;5412047;26;20002;-67
2024/04/23 07:39:25;;;;;;;1.38;1.33;;;;;;;;;;5414487;26;20012;-66
2024/04/23 07:41:51;;;;;;;1.20;1.20;;;;;;;;;;5406361;26;20045;-63
2024/04/23 07:44:18;;;;;;;2.92;1.60;;;;;;;;;;5443252;26;20007;-66
2024/04/23 07:46:44;;;;;;;3.83;1.60;;;;;;;;;;5420766;26;20003;-66
2024/04/23 07:49:10;;;;;;;5.60;1.92;;;;;;;;;;5378468;26;20022;-63
2024/04/23 07:51:36;;;;;;;6.18;1.95;;;;;;;;;;5437492;26;20006;-67
2024/04/23 07:54:02;;;;;;;3.00;1.90;;;;;;;;;;5438029;26;19991;-65
2024/04/23 07:56:28;;;;;;;2.70;1.67;;;;;;;;;;5435892;26;20035;-63
2024/04/23 07:58:55;;;;;;;2.85;1.67;;;;;;;;;;5409297;26;20007;-63
2024/04/23 08:01:21;;;;;;;1.55;1.45;;;;;;;;;;5434798;26;20007;-63
2024/04/23 08:03:49;;;;;;;1.70;1.60;;;;;;;;;;5429973;26;20076;-62
2024/04/23 08:06:19;;;;;;;3.42;1.70;;;;;;;;;;5389006;26;20325;-63
2024/04/23 08:08:45;;;;;;;3.83;1.67;;;;;;;;;;5398935;26;20039;-63
2024/04/23 08:11:12;;;;;;;2.40;1.70;;;;;;;;;;5422684;26;20010;-63
2024/04/23 08:13:39;;;;;;;1.60;1.50;;;;;;;;;;5405984;26;20011;-63
2024/04/23 08:16:06;;;;;;;3.05;1.90;;;;;;;;;;5425388;26;20084;-63
2024/04/23 08:18:34;;;;;;;1.52;1.42;;;;;;;;;;5434790;26;20022;-63
2024/04/23 08:21:05;;;;;;;2.33;1.60;;;;;;;;;;5430350;26;20446;-66
2024/04/23 08:23:32;;;;;;;1.77;1.67;;;;;;;;;;5403690;26;20002;-67
2024/04/23 08:26:00;;;;;;;1.58;1.48;;;;;;;;;;5401458;26;20397;-65
2024/04/23 08:28:26;;;;;;;1.63;1.40;;;;;;;;;;5440311;26;19994;-66
2024/04/23 08:30:53;;;;;;;1.35;1.30;;;;;;;;;;5432982;26;19999;-66
2024/04/23 08:33:19;;;;;;;1.70;1.60;;;;;;;;;;5429345;26;19999;-66
2024/04/23 08:35:48;;;;;;;2.33;1.80;;;;;;;;;;5431164;26;21389;-62
2024/04/23 08:38:14;;;;;;;3.55;1.60;;;;;;;;;;5440931;26;20380;-62
2024/04/23 08:40:41;;;;;;;1.80;1.70;;;;;;;;;;5431201;26;20023;-62
2024/04/23 08:43:14;;;;;;;2.70;1.60;;;;;;;;;;5431952;26;19994;-62
2024/04/23 08:45:41;;;;;;;1.50;1.40;;;;;;;;;;5423051;26;20013;-62
2024/04/23 08:48:08;;;;;;;1.92;1.73;;;;;;;;;;5430977;26;20458;-62
2024/04/23 08:50:35;;;;;;;2.10;1.90;;;;;;;;;;5398796;26;20967;-67
2024/04/23 08:53:02;;;;;;;1.70;1.60;;;;;;;;;;5438892;26;20062;-66
2024/04/23 08:55:29;;;;;;;1.40;1.40;;;;;;;;;;5405523;26;20010;-66
2024/04/23 08:57:58;;;;;;;2.08;1.88;;;;;;;;;;5438761;26;20442;-66
2024/04/23 09:00:24;;;;;;;1.67;1.58;;;;;;;;;;5429994;26;20439;-62
2024/04/23 09:02:52;;;;;;;1.63;1.52;;;;;;;;;;5405775;26;19994;-62
2024/04/23 09:05:18;;;;;;;3.63;1.77;;;;;;;;;;5395083;26;20520;-62
2024/04/23 09:07:45;;;;;;;2.53;1.70;;;;;;;;;;5435837;26;20017;-62
2024/04/23 09:10:11;;;;;;;1.80;1.70;;;;;;;;;;5445062;26;20559;-62
2024/04/23 09:12:37;;;;;;;2.67;1.38;;;;;;;;;;5429490;26;20010;-62
2024/04/23 09:15:03;;;;;;;4.40;1.85;;;;;;;;;;5436390;26;20428;-63
2024/04/23 09:17:33;;;;;;;1.70;1.60;;;;;;;;;;5422625;26;20006;-63
2024/04/23 09:20:01;;;;;;;1.73;1.63;;;;;;;;;;5430094;26;20260;-62
2024/04/23 09:22:28;;;;;;;3.53;1.90;;;;;;;;;;5403699;26;20060;-62
2024/04/23 09:25:01;;;;;;;2.10;1.90;;;;;;;;;;5424332;26;20305;-63
2024/04/23 09:27:29;;;;;;;1.60;1.50;;;;;;;;;;5430348;26;20499;-63
2024/04/23 09:29:56;;;;;;;1.60;1.50;;;;;;;;;;5412339;26;20003;-67
2024/04/23 09:32:23;;;;;;;3.88;1.70;;;;;;;;;;5402463;26;19999;-63
2024/04/23 09:34:53;;;;;;;1.65;1.55;;;;;;;;;;5443113;26;20479;-63
2024/04/23 09:37:20;;;;;;;1.73;1.63;;;;;;;;;;5439598;26;20556;-63
2024/04/23 09:39:46;;;;;;;2.13;1.83;;;;;;;;;;5437404;26;20547;-63
2024/04/23 09:42:20;;;;;;;1.90;1.65;;;;;;;;;;5438047;26;20352;-64
2024/04/23 09:44:47;;;;;;;3.30;1.63;;;;;;;;;;5432163;26;20374;-63
2024/04/23 09:47:13;;;;;;;2.08;1.88;;;;;;;;;;5448242;26;20452;-63
2024/04/23 09:49:39;;;;;;;7.25;2.53;;;;;;;;;;5433173;26;20015;-63
2024/04/23 09:52:06;;;;;;;1.58;1.42;;;;;;;;;;5434632;26;20010;-63
2024/04/23 09:54:40;;;;;;;3.22;1.75;;;;;;;;;;5443991;26;20312;-63
2024/04/23 09:57:06;;;;;;;2.13;1.98;;;;;;;;;;5410187;26;20010;-63
2024/04/23 09:59:32;;;;;;;1.80;1.70;;;;;;;;;;5411082;26;20002;-64
2024/04/23 10:02:02;;;;;;;1.80;1.70;;;;;;;;;;5438076;26;20002;-63
2024/04/23 10:04:28;;;;;;;4.93;1.73;;;;;;;;;;5433565;26;20003;-63
2024/04/23 10:06:55;;;;;;;4.63;1.98;;;;;;;;;;5432307;26;20023;-63
2024/04/23 10:09:24;;;;;;;2.88;1.60;;;;;;;;;;5438727;26;20021;-67
2024/04/23 10:11:59;;;;;;;2.50;1.70;;;;;;;;;;5440410;26;20071;-67
2024/04/23 10:14:26;;;;;;;;;;;;;;;;;;5443379;26;20301;-68
2024/04/23 10:17:10;;;;;;;3.28;1.98;;;;;;;;;;5436084;26;19925;-68
2024/04/23 10:19:36;;;;;;;1.90;1.60;;;;;;;;;;5428937;26;20039;-63
2024/04/23 10:22:04;;;;;;;3.63;1.88;;;;;;;;;;5442730;26;20039;-68
2024/04/23 10:24:31;;;;;;;1.80;1.70;;;;;;;;;;5437043;26;20000;-63
2024/04/23 10:26:57;;;;;;;2.15;1.90;;;;;;;;;;5442494;26;20007;-63
2024/04/23 10:29:24;;;;;;;2.38;1.67;;;;;;;;;;5432264;26;20002;-63
2024/04/23 10:31:50;;;;;;;3.95;1.90;;;;;;;;;;5436128;26;20522;-63
2024/04/23 10:34:17;;;;;;;2.25;1.90;;;;;;;;;;5431201;26;19991;-62
2024/04/23 10:36:49;;;;;;;5.90;2.10;;;;;;;;;;5434965;26;20071;-63
2024/04/23 10:39:16;;;;;;;1.80;1.70;;;;;;;;;;5435798;26;20003;-62
2024/04/23 10:41:43;;;;;;;4.07;1.90;;;;;;;;;;5432992;26;20842;-63
2024/04/23 10:44:11;;;;;;;2.72;1.98;;;;;;;;;;5430430;26;20072;-63
2024/04/23 10:46:41;;;;;;;3.67;1.92;;;;;;;;;;5404818;26;20022;-67
2024/04/23 10:49:15;;;;;;;2.13;1.70;;;;;;;;;;5407885;26;19998;-67
2024/04/23 10:51:46;;;;;;;4.50;2.05;;;;;;;;;;5442506;26;19991;-67
2024/04/23 10:54:19;;;;;;;4.65;2.20;;;;;;;;;;5421095;26;19994;-67
2024/04/23 10:56:55;;;;;;;3.60;2.10;;;;;;;;;;5415829;26;19996;-67
2024/04/23 10:59:23;;;;;;;5.50;2.00;;;;;;;;;;5436719;26;20017;-63
2024/04/23 11:01:53;;;;;;;2.63;2.00;;;;;;;;;;5437279;26;20082;-63
2024/04/23 11:04:28;;;;;;;4.65;2.10;;;;;;;;;;5445275;26;20081;-68
2024/04/23 11:06:54;;;;;;;;;;;;;;;;;;5402574;26;20409;-67
2024/04/23 11:09:21;;;;;;;1.90;1.75;;;;;;;;;;5437605;26;19944;-63
2024/04/23 11:11:56;;;;;;;2.67;1.83;;;;;;;;;;5429091;26;20003;-67
2024/04/23 11:14:35;;;;;;;3.05;2.20;;;;;;;;;;5439053;26;20025;-67
2024/04/23 11:17:05;;;;;;;9.80;2.17;;;;;;;;;;5432070;26;20026;-68
2024/04/23 11:19:56;;;;;;;2.10;1.70;;;;;;;;;;5432650;26;19991;-66
2024/04/23 11:22:25;;;;;;;5.88;2.22;;;;;;;;;;5409464;26;20002;-63
2024/04/23 11:24:55;;;;;;;3.50;2.60;;;;;;;;;;5404737;26;20002;-63
2024/04/23 11:27:22;;;;;;;7.63;2.38;;;;;;;;;;5435999;26;19992;-63
2024/04/23 11:29:48;;;;;;;5.28;2.85;;;;;;;;;;5430471;26;20518;-63
2024/04/23 11:32:16;;;;;;;4.65;1.90;;;;;;;;;;5440440;26;19994;-63
2024/04/23 11:34:43;;;;;;;5.25;2.08;;;;;;;;;;5399915;26;20021;-63
2024/04/23 11:37:10;;;;;;;6.10;2.13;;;;;;;;;;5437920;26;20474;-63
2024/04/23 11:39:36;;;;;;;6.80;2.80;;;;;;;;;;5400747;26;20029;-63
2024/04/23 11:42:03;;;;;;;5.30;2.50;;;;;;;;;;5438422;26;20071;-63
2024/04/23 11:44:30;;;;;;;4.47;2.53;;;;;;;;;;5414189;26;20454;-63
2024/04/23 11:46:57;;;;;;;4.90;2.65;;;;;;;;;;5413778;26;20512;-67
2024/04/23 11:49:26;;;;;;;6.90;2.80;;;;;;;;;;5434381;26;20835;-63
2024/04/23 11:51:55;;;;;;;4.45;2.38;;;;;;;;;;5435083;26;20017;-63
2024/04/23 11:54:24;;;;;;;8.10;2.70;;;;;;;;;;5400912;26;20515;-64
2024/04/23 11:56:51;;;;;;;5.65;2.53;;;;;;;;;;5433343;26;19995;-63
2024/04/23 11:59:20;;;;;;;5.85;2.70;;;;;;;;;;5400344;26;19998;-67
2024/04/23 12:01:50;;;;;;;2.40;2.20;;;;;;;;;;5414026;26;20894;-67
2024/04/23 12:04:18;;;;;;;3.75;2.10;;;;;;;;;;5444614;26;20769;-67
2024/04/23 12:06:45;;;;;;;5.03;2.80;;;;;;;;;;5435595;26;20011;-68
2024/04/23 12:09:11;;;;;;;5.03;2.40;;;;;;;;;;5438227;26;20066;-67
2024/04/23 12:11:38;;;;;;;8.00;2.72;;;;;;;;;;5438807;26;20002;-68
2024/04/23 12:14:09;;;;;;;3.20;1.98;;;;;;;;;;5434887;26;19995;-67
2024/04/23 12:16:35;;;;;;;5.05;2.42;;;;;;;;;;5424514;26;20080;-72
2024/04/23 12:19:01;;;;;;;7.38;2.63;;;;;;;;;;5440550;26;20007;-67
2024/04/23 12:21:28;;;;;;;4.05;2.30;;;;;;;;;;5430676;26;21287;-70
2024/04/23 12:23:55;;;;;;;5.55;2.60;;;;;;;;;;5437127;26;19999;-71
2024/04/23 12:26:21;;;;;;;6.10;2.53;;;;;;;;;;5432749;26;20015;-71
2024/04/23 12:28:48;;;;;;;3.85;2.55;;;;;;;;;;5438684;26;20003;-72
2024/04/23 12:31:14;;;;;;;7.72;2.47;;;;;;;;;;5393026;26;20002;-70
2024/04/23 12:33:40;;;;;;;9.90;2.90;;;;;;;;;;5405420;26;20006;-72
2024/04/23 12:36:08;;;;;;;6.95;2.80;;;;;;;;;;5436047;26;20005;-71
2024/04/23 12:38:44;;;;;;;5.25;2.47;;;;;;;;;;5412717;26;20022;-71
2024/04/23 12:41:26;;;;;;;5.05;2.75;;;;;;;;;;5399031;26;20113;-71
2024/04/23 12:43:52;;;;;;;4.20;3.17;;;;;;;;;;5431212;26;20007;-67
2024/04/23 12:46:19;;;;;;;2.15;1.70;;;;;;;;;;5434969;26;20034;-73
2024/04/23 12:48:47;;;;;;;7.05;2.60;;;;;;;;;;5438464;26;19999;-71
2024/04/23 12:51:13;;;;;;;6.88;2.90;;;;;;;;;;5395915;26;20050;-71
2024/04/23 12:53:39;;;;;;;6.75;2.35;;;;;;;;;;5427006;26;19991;-73
2024/04/23 12:56:07;;;;;;;5.25;2.58;;;;;;;;;;5398854;26;20054;-74
2024/04/23 12:58:35;;;;;;;4.95;2.50;;;;;;;;;;5439922;26;20010;-74
2024/04/23 13:01:01;;;;;;;4.28;2.30;;;;;;;;;;5431057;26;20010;-74
2024/04/23 13:03:28;;;;;;;4.60;2.38;;;;;;;;;;5424531;26;20458;-69
2024/04/23 13:05:54;;;;;;;5.03;2.50;;;;;;;;;;5428500;26;20509;-68
2024/04/23 13:08:20;;;;;;;6.10;2.60;;;;;;;;;;5440429;26;19994;-68
2024/04/23 13:10:47;;;;;;;3.83;2.50;;;;;;;;;;5432786;26;19998;-68
2024/04/23 13:13:13;;;;;;;4.57;2.25;;;;;;;;;;5447458;26;20018;-68
2024/04/23 13:15:40;;;;;;;6.47;2.60;;;;;;;;;;5443982;26;19994;-68
2024/04/23 13:18:08;;;;;;;4.55;2.60;;;;;;;;;;5437871;26;20012;-68
2024/04/23 13:20:36;;;;;;;4.25;2.60;;;;;;;;;;5419660;26;19996;-68
2024/04/23 13:23:03;;;;;;;5.50;3.25;;;;;;;;;;5419668;26;20466;-68
2024/04/23 13:25:34;;;;;;;6.82;3.05;;;;;;;;;;5411038;26;20469;-68
2024/04/23 13:28:01;;;;;;;3.83;2.40;;;;;;;;;;5459173;26;20331;-69
2024/04/23 13:30:27;;;;;;;6.00;2.80;;;;;;;;;;5445213;26;20083;-69
2024/04/23 13:32:54;;;;;;;6.10;2.70;;;;;;;;;;5436396;26;20011;-70
2024/04/23 13:35:23;;;;;;;10.90;2.80;;;;;;;;;;5446308;26;20048;-69
2024/04/23 13:37:49;;;;;;;3.65;2.35;;;;;;;;;;5445538;26;20002;-69
2024/04/23 13:40:16;;;;;;;6.50;2.58;;;;;;;;;;5446181;26;19999;-68
2024/04/23 13:42:42;;;;;;;5.90;2.63;;;;;;;;;;5449709;26;20534;-69
2024/04/23 13:45:08;;;;;;;7.40;2.80;;;;;;;;;;5439806;26;20373;-69
2024/04/23 13:47:36;;;;;;;4.72;2.10;;;;;;;;;;5445450;26;20342;-69
2024/04/23 13:50:05;;;;;;;5.13;2.38;;;;;;;;;;5433395;26;20069;-69
2024/04/23 13:52:32;;;;;;;4.43;2.50;;;;;;;;;;5400009;26;20513;-68
2024/04/23 13:54:58;;;;;;;3.83;2.40;;;;;;;;;;5428138;26;20018;-68
2024/04/23 13:57:24;;;;;;;4.25;2.60;;;;;;;;;;5430919;26;20014;-68
2024/04/23 13:59:51;;;;;;;4.43;2.30;;;;;;;;;;5415979;26;20452;-69
2024/04/23 14:02:17;;;;;;;5.82;3.28;;;;;;;;;;5397130;26;20041;-69
2024/04/23 14:04:45;;;;;;;7.13;2.47;;;;;;;;;;5416339;26;19999;-68
2024/04/23 14:07:17;;;;;;;7.03;2.70;;;;;;;;;;5420499;26;20368;-69
2024/04/23 14:09:43;;;;;;;3.25;2.20;;;;;;;;;;5415685;26;20029;-69
2024/04/23 14:12:10;;;;;;;5.80;2.17;;;;;;;;;;5418100;26;20010;-69
2024/04/23 14:14:37;;;;;;;7.72;2.60;;;;;;;;;;5443066;26;20412;-69
2024/04/23 14:17:03;;;;;;;6.18;2.45;;;;;;;;;;5401236;26;20446;-69
2024/04/23 14:19:33;;;;;;;8.25;2.55;;;;;;;;;;5452789;26;20014;-68
2024/04/23 14:22:01;;;;;;;9.40;2.70;;;;;;;;;;5439697;26;19998;-70
2024/04/23 14:24:27;;;;;;;8.68;2.78;;;;;;;;;;5442052;26;20006;-69
2024/04/23 14:26:53;;;;;;;2.72;2.40;;;;;;;;;;5442788;26;19995;-68
2024/04/23 14:29:20;;;;;;;4.60;2.22;;;;;;;;;;5441407;26;20003;-69
2024/04/23 14:31:46;;;;;;;5.00;2.38;;;;;;;;;;5420275;26;20715;-69
2024/04/23 14:34:13;;;;;;;6.00;2.65;;;;;;;;;;5443871;26;20012;-69
2024/04/23 14:36:42;;;;;;;4.85;2.78;;;;;;;;;;5442816;26;20062;-69
2024/04/23 14:39:08;;;;;;;6.85;2.60;;;;;;;;;;5439861;26;20489;-70
2024/04/23 14:41:35;;;;;;;6.75;2.75;;;;;;;;;;5445890;26;20046;-68
2024/04/23 14:44:01;;;;;;;8.45;2.70;;;;;;;;;;5410486;26;19998;-69
2024/04/23 14:46:27;;;;;;;6.65;2.70;;;;;;;;;;5438249;26;20002;-68
2024/04/23 14:48:53;;;;;;;4.68;2.65;;;;;;;;;;5443912;26;20013;-69
2024/04/23 14:51:20;;;;;;;7.07;2.78;;;;;;;;;;5412611;26;20022;-69